sensor_id;sensor_type;location;lat;lon;timestamp;P1;durP1;ratioP1;P2;durP2;ratioP2
69910;SDS011;63555;49.920;17.868;2023-07-30T00:04:39;3.57;;;1.20;;
69910;SDS011;63555;49.920;17.868;2023-07-30T00:09:39;4.47;;;1.40;;
69910;SDS011;63555;49.920;17.868;2023-07-30T00:14:40;4.30;;;1.40;;
69910;SDS011;63555;49.920;17.868;2023-07-30T00:19:40;3.20;;;1.17;;
69910;SDS011;63555;49.920;17.868;2023-07-30T00:24:40;3.70;;;1.43;;
69910;SDS011;63555;49.920;17.868;2023-07-30T00:29:41;6.80;;;1.17;;
69910;SDS011;63555;49.920;17.868;2023-07-30T00:34:41;4.10;;;1.60;;
69910;SDS011;63555;49.920;17.868;2023-07-30T00:39:41;5.87;;;1.70;;
69910;SDS011;63555;49.920;17.868;2023-07-30T00:44:42;4.27;;;1.60;;
69910;SDS011;63555;49.920;17.868;2023-07-30T00:49:42;5.67;;;1.63;;
69910;SDS011;63555;49.920;17.868;2023-07-30T00:54:43;6.03;;;1.80;;
69910;SDS011;63555;49.920;17.868;2023-07-30T00:59:43;7.87;;;1.50;;
69910;SDS011;63555;49.920;17.868;2023-07-30T01:04:43;6.27;;;2.00;;
69910;SDS011;63555;49.920;17.868;2023-07-30T01:09:44;4.07;;;1.80;;
69910;SDS011;63555;49.920;17.868;2023-07-30T01:14:45;3.40;;;1.77;;
69910;SDS011;63555;49.920;17.868;2023-07-30T01:19:45;5.90;;;1.40;;
69910;SDS011;63555;49.920;17.868;2023-07-30T01:24:46;4.10;;;1.30;;
69910;SDS011;63555;49.920;17.868;2023-07-30T01:29:52;3.28;;;1.17;;
69910;SDS011;63555;49.920;17.868;2023-07-30T01:34:57;5.95;;;1.13;;
69910;SDS011;63555;49.920;17.868;2023-07-30T01:40:00;3.05;;;1.15;;
69910;SDS011;63555;49.920;17.868;2023-07-30T01:45:01;2.93;;;1.10;;
69910;SDS011;63555;49.920;17.868;2023-07-30T01:50:01;3.97;;;1.27;;
69910;SDS011;63555;49.920;17.868;2023-07-30T01:55:02;2.87;;;1.23;;
69910;SDS011;63555;49.920;17.868;2023-07-30T02:00:03;2.67;;;1.20;;
69910;SDS011;63555;49.920;17.868;2023-07-30T02:05:04;2.43;;;1.10;;
69910;SDS011;63555;49.920;17.868;2023-07-30T02:10:05;3.07;;;1.30;;
69910;SDS011;63555;49.920;17.868;2023-07-30T02:15:05;4.22;;;1.67;;
69910;SDS011;63555;49.920;17.868;2023-07-30T02:20:06;2.83;;;1.27;;
69910;SDS011;63555;49.920;17.868;2023-07-30T02:25:07;4.10;;;1.50;;
69910;SDS011;63555;49.920;17.868;2023-07-30T02:30:08;5.43;;;1.40;;
69910;SDS011;63555;49.920;17.868;2023-07-30T02:35:09;4.57;;;1.23;;
69910;SDS011;63555;49.920;17.868;2023-07-30T02:40:09;3.83;;;1.33;;
69910;SDS011;63555;49.920;17.868;2023-07-30T02:45:10;3.55;;;1.50;;
69910;SDS011;63555;49.920;17.868;2023-07-30T02:50:10;2.50;;;1.30;;
69910;SDS011;63555;49.920;17.868;2023-07-30T02:55:11;6.20;;;1.67;;
69910;SDS011;63555;49.920;17.868;2023-07-30T03:00:11;5.10;;;1.63;;
69910;SDS011;63555;49.920;17.868;2023-07-30T03:05:13;3.78;;;1.50;;
69910;SDS011;63555;49.920;17.868;2023-07-30T03:10:13;3.33;;;1.47;;
69910;SDS011;63555;49.920;17.868;2023-07-30T03:15:13;3.40;;;1.20;;
69910;SDS011;63555;49.920;17.868;2023-07-30T03:20:14;2.87;;;1.30;;
69910;SDS011;63555;49.920;17.868;2023-07-30T03:25:14;4.63;;;1.33;;
69910;SDS011;63555;49.920;17.868;2023-07-30T03:30:15;3.10;;;1.25;;
69910;SDS011;63555;49.920;17.868;2023-07-30T03:35:15;2.70;;;1.25;;
69910;SDS011;63555;49.920;17.868;2023-07-30T03:40:16;2.42;;;1.10;;
69910;SDS011;63555;49.920;17.868;2023-07-30T03:45:16;3.72;;;1.13;;
69910;SDS011;63555;49.920;17.868;2023-07-30T03:50:17;3.10;;;1.07;;
69910;SDS011;63555;49.920;17.868;2023-07-30T03:55:17;3.20;;;1.30;;
69910;SDS011;63555;49.920;17.868;2023-07-30T04:00:17;2.87;;;1.40;;
69910;SDS011;63555;49.920;17.868;2023-07-30T04:05:18;2.80;;;0.80;;
69910;SDS011;63555;49.920;17.868;2023-07-30T04:10:18;3.50;;;0.90;;
69910;SDS011;63555;49.920;17.868;2023-07-30T04:15:19;2.43;;;0.90;;
69910;SDS011;63555;49.920;17.868;2023-07-30T04:20:19;4.30;;;0.80;;
69910;SDS011;63555;49.920;17.868;2023-07-30T04:25:19;5.70;;;0.97;;
69910;SDS011;63555;49.920;17.868;2023-07-30T04:30:20;2.90;;;1.03;;
69910;SDS011;63555;49.920;17.868;2023-07-30T04:35:20;2.60;;;1.10;;
69910;SDS011;63555;49.920;17.868;2023-07-30T04:40:20;4.20;;;1.37;;
69910;SDS011;63555;49.920;17.868;2023-07-30T04:45:21;2.87;;;1.00;;
69910;SDS011;63555;49.920;17.868;2023-07-30T04:50:21;3.10;;;1.33;;
69910;SDS011;63555;49.920;17.868;2023-07-30T04:55:21;2.77;;;1.20;;
69910;SDS011;63555;49.920;17.868;2023-07-30T05:00:22;3.27;;;1.20;;
69910;SDS011;63555;49.920;17.868;2023-07-30T05:05:22;2.30;;;0.70;;
69910;SDS011;63555;49.920;17.868;2023-07-30T05:10:23;3.63;;;1.00;;
69910;SDS011;63555;49.920;17.868;2023-07-30T05:15:23;3.10;;;0.73;;
69910;SDS011;63555;49.920;17.868;2023-07-30T05:20:23;2.13;;;0.63;;
69910;SDS011;63555;49.920;17.868;2023-07-30T05:25:24;2.30;;;0.90;;
69910;SDS011;63555;49.920;17.868;2023-07-30T05:30:24;2.27;;;0.80;;
69910;SDS011;63555;49.920;17.868;2023-07-30T05:35:25;2.60;;;0.80;;
69910;SDS011;63555;49.920;17.868;2023-07-30T05:40:25;3.57;;;0.80;;
69910;SDS011;63555;49.920;17.868;2023-07-30T05:45:26;2.33;;;0.80;;
69910;SDS011;63555;49.920;17.868;2023-07-30T05:50:26;2.25;;;0.90;;
69910;SDS011;63555;49.920;17.868;2023-07-30T05:55:26;2.83;;;0.90;;
69910;SDS011;63555;49.920;17.868;2023-07-30T06:00:27;4.83;;;1.00;;
69910;SDS011;63555;49.920;17.868;2023-07-30T06:05:27;2.37;;;0.87;;
69910;SDS011;63555;49.920;17.868;2023-07-30T06:10:28;2.67;;;0.90;;
69910;SDS011;63555;49.920;17.868;2023-07-30T06:15:28;2.53;;;1.00;;
69910;SDS011;63555;49.920;17.868;2023-07-30T06:20:29;2.40;;;0.93;;
69910;SDS011;63555;49.920;17.868;2023-07-30T06:25:30;2.50;;;1.00;;
69910;SDS011;63555;49.920;17.868;2023-07-30T06:30:31;2.73;;;0.90;;
69910;SDS011;63555;49.920;17.868;2023-07-30T06:35:32;5.80;;;1.05;;
69910;SDS011;63555;49.920;17.868;2023-07-30T06:40:33;3.00;;;0.93;;
69910;SDS011;63555;49.920;17.868;2023-07-30T06:45:33;4.80;;;1.00;;
69910;SDS011;63555;49.920;17.868;2023-07-30T06:50:33;2.50;;;0.93;;
69910;SDS011;63555;49.920;17.868;2023-07-30T06:55:34;4.27;;;0.90;;
69910;SDS011;63555;49.920;17.868;2023-07-30T07:00:35;2.58;;;0.70;;
69910;SDS011;63555;49.920;17.868;2023-07-30T07:05:36;2.83;;;0.93;;
69910;SDS011;63555;49.920;17.868;2023-07-30T07:10:36;2.30;;;0.97;;
69910;SDS011;63555;49.920;17.868;2023-07-30T07:15:36;4.65;;;1.40;;
69910;SDS011;63555;49.920;17.868;2023-07-30T07:20:37;2.50;;;1.10;;
69910;SDS011;63555;49.920;17.868;2023-07-30T07:25:38;2.37;;;0.90;;
69910;SDS011;63555;49.920;17.868;2023-07-30T07:30:38;2.87;;;0.80;;
69910;SDS011;63555;49.920;17.868;2023-07-30T07:35:39;2.40;;;1.07;;
69910;SDS011;63555;49.920;17.868;2023-07-30T07:40:40;2.50;;;1.15;;
69910;SDS011;63555;49.920;17.868;2023-07-30T07:45:40;3.63;;;1.00;;
69910;SDS011;63555;49.920;17.868;2023-07-30T07:50:41;2.27;;;1.10;;
69910;SDS011;63555;49.920;17.868;2023-07-30T07:55:41;2.10;;;0.90;;
69910;SDS011;63555;49.920;17.868;2023-07-30T08:00:42;2.35;;;0.98;;
69910;SDS011;63555;49.920;17.868;2023-07-30T08:05:43;2.63;;;1.10;;
69910;SDS011;63555;49.920;17.868;2023-07-30T08:10:43;2.60;;;0.87;;
69910;SDS011;63555;49.920;17.868;2023-07-30T08:15:46;2.83;;;1.33;;
69910;SDS011;63555;49.920;17.868;2023-07-30T08:20:47;3.83;;;1.30;;
69910;SDS011;63555;49.920;17.868;2023-07-30T08:25:49;2.40;;;1.10;;
69910;SDS011;63555;49.920;17.868;2023-07-30T08:30:50;2.83;;;1.30;;
69910;SDS011;63555;49.920;17.868;2023-07-30T08:35:50;2.80;;;1.10;;
69910;SDS011;63555;49.920;17.868;2023-07-30T08:40:58;2.30;;;1.15;;
69910;SDS011;63555;49.920;17.868;2023-07-30T08:45:59;5.10;;;1.30;;
69910;SDS011;63555;49.920;17.868;2023-07-30T08:51:00;2.90;;;1.40;;
69910;SDS011;63555;49.920;17.868;2023-07-30T08:56:01;2.38;;;1.00;;
69910;SDS011;63555;49.920;17.868;2023-07-30T09:01:05;3.25;;;1.30;;
69910;SDS011;63555;49.920;17.868;2023-07-30T09:06:10;2.77;;;1.10;;
69910;SDS011;63555;49.920;17.868;2023-07-30T09:11:11;2.50;;;1.20;;
69910;SDS011;63555;49.920;17.868;2023-07-30T09:16:12;2.20;;;1.00;;
69910;SDS011;63555;49.920;17.868;2023-07-30T09:21:14;2.70;;;1.20;;
69910;SDS011;63555;49.920;17.868;2023-07-30T09:26:14;2.97;;;1.00;;
69910;SDS011;63555;49.920;17.868;2023-07-30T09:31:14;2.77;;;1.07;;
69910;SDS011;63555;49.920;17.868;2023-07-30T09:36:15;2.83;;;1.10;;
69910;SDS011;63555;49.920;17.868;2023-07-30T09:41:18;2.50;;;1.07;;
69910;SDS011;63555;49.920;17.868;2023-07-30T09:46:19;4.10;;;1.30;;
69910;SDS011;63555;49.920;17.868;2023-07-30T09:51:19;3.80;;;1.30;;
69910;SDS011;63555;49.920;17.868;2023-07-30T09:56:20;2.30;;;1.10;;
69910;SDS011;63555;49.920;17.868;2023-07-30T10:01:20;2.43;;;1.07;;
69910;SDS011;63555;49.920;17.868;2023-07-30T10:06:27;3.28;;;1.15;;
69910;SDS011;63555;49.920;17.868;2023-07-30T10:11:31;3.45;;;1.20;;
69910;SDS011;63555;49.920;17.868;2023-07-30T10:16:32;2.92;;;1.20;;
69910;SDS011;63555;49.920;17.868;2023-07-30T10:21:32;2.83;;;1.10;;
69910;SDS011;63555;49.920;17.868;2023-07-30T10:26:34;3.13;;;1.30;;
69910;SDS011;63555;49.920;17.868;2023-07-30T10:31:39;2.50;;;1.20;;
69910;SDS011;63555;49.920;17.868;2023-07-30T10:36:48;2.60;;;1.05;;
69910;SDS011;63555;49.920;17.868;2023-07-30T10:41:50;2.45;;;1.00;;
69910;SDS011;63555;49.920;17.868;2023-07-30T10:46:56;2.87;;;1.30;;
69910;SDS011;63555;49.920;17.868;2023-07-30T10:51:57;2.40;;;1.00;;
69910;SDS011;63555;49.920;17.868;2023-07-30T10:56:58;2.20;;;1.00;;
69910;SDS011;63555;49.920;17.868;2023-07-30T11:01:59;2.72;;;1.05;;
69910;SDS011;63555;49.920;17.868;2023-07-30T11:07:00;2.85;;;1.02;;
69910;SDS011;63555;49.920;17.868;2023-07-30T11:12:00;3.00;;;0.90;;
69910;SDS011;63555;49.920;17.868;2023-07-30T11:17:00;2.70;;;1.33;;
69910;SDS011;63555;49.920;17.868;2023-07-30T11:22:01;4.80;;;1.17;;
69910;SDS011;63555;49.920;17.868;2023-07-30T11:27:02;2.80;;;1.00;;
69910;SDS011;63555;49.920;17.868;2023-07-30T11:32:03;2.20;;;1.00;;
69910;SDS011;63555;49.920;17.868;2023-07-30T11:37:04;3.80;;;1.40;;
69910;SDS011;63555;49.920;17.868;2023-07-30T11:42:05;3.07;;;1.30;;
69910;SDS011;63555;49.920;17.868;2023-07-30T11:47:06;3.60;;;1.30;;
69910;SDS011;63555;49.920;17.868;2023-07-30T11:52:08;2.57;;;1.40;;
69910;SDS011;63555;49.920;17.868;2023-07-30T11:57:10;3.78;;;1.35;;
69910;SDS011;63555;49.920;17.868;2023-07-30T12:02:16;2.83;;;1.50;;
69910;SDS011;63555;49.920;17.868;2023-07-30T12:07:23;4.47;;;1.53;;
69910;SDS011;63555;49.920;17.868;2023-07-30T12:12:25;3.85;;;1.17;;
69910;SDS011;63555;49.920;17.868;2023-07-30T12:17:26;5.63;;;1.70;;
69910;SDS011;63555;49.920;17.868;2023-07-30T12:22:26;4.50;;;1.30;;
69910;SDS011;63555;49.920;17.868;2023-07-30T12:27:26;4.83;;;1.43;;
69910;SDS011;63555;49.920;17.868;2023-07-30T12:32:28;3.20;;;1.30;;
69910;SDS011;63555;49.920;17.868;2023-07-30T12:37:29;2.33;;;1.10;;
69910;SDS011;63555;49.920;17.868;2023-07-30T12:42:29;2.50;;;1.20;;
69910;SDS011;63555;49.920;17.868;2023-07-30T12:47:31;4.07;;;1.40;;
69910;SDS011;63555;49.920;17.868;2023-07-30T12:52:34;4.97;;;1.37;;
69910;SDS011;63555;49.920;17.868;2023-07-30T12:57:35;2.60;;;1.25;;
69910;SDS011;63555;49.920;17.868;2023-07-30T13:02:35;4.77;;;1.60;;
69910;SDS011;63555;49.920;17.868;2023-07-30T13:07:38;4.13;;;1.30;;
69910;SDS011;63555;49.920;17.868;2023-07-30T13:12:40;3.27;;;1.37;;
69910;SDS011;63555;49.920;17.868;2023-07-30T13:17:40;2.40;;;0.93;;
69910;SDS011;63555;49.920;17.868;2023-07-30T13:22:41;7.10;;;1.00;;
69910;SDS011;63555;49.920;17.868;2023-07-30T13:27:41;5.10;;;0.93;;
69910;SDS011;63555;49.920;17.868;2023-07-30T13:32:42;5.23;;;0.60;;
69910;SDS011;63555;49.920;17.868;2023-07-30T13:37:42;2.30;;;0.70;;
69910;SDS011;63555;49.920;17.868;2023-07-30T13:42:43;3.75;;;0.63;;
69910;SDS011;63555;49.920;17.868;2023-07-30T13:47:43;1.90;;;0.63;;
69910;SDS011;63555;49.920;17.868;2023-07-30T13:52:44;2.57;;;0.67;;
69910;SDS011;63555;49.920;17.868;2023-07-30T13:57:44;3.13;;;0.90;;
69910;SDS011;63555;49.920;17.868;2023-07-30T14:02:45;3.90;;;0.80;;
69910;SDS011;63555;49.920;17.868;2023-07-30T14:07:45;2.30;;;0.80;;
69910;SDS011;63555;49.920;17.868;2023-07-30T14:12:46;4.28;;;1.00;;
69910;SDS011;63555;49.920;17.868;2023-07-30T14:17:46;1.83;;;0.60;;
69910;SDS011;63555;49.920;17.868;2023-07-30T14:22:47;3.23;;;0.70;;
69910;SDS011;63555;49.920;17.868;2023-07-30T14:27:49;1.80;;;0.70;;
69910;SDS011;63555;49.920;17.868;2023-07-30T14:32:49;1.90;;;0.60;;
69910;SDS011;63555;49.920;17.868;2023-07-30T14:37:49;1.77;;;0.47;;
69910;SDS011;63555;49.920;17.868;2023-07-30T14:42:50;2.20;;;0.70;;
69910;SDS011;63555;49.920;17.868;2023-07-30T14:47:50;1.90;;;0.80;;
69910;SDS011;63555;49.920;17.868;2023-07-30T14:52:51;2.03;;;0.70;;
69910;SDS011;63555;49.920;17.868;2023-07-30T14:57:51;3.23;;;0.63;;
69910;SDS011;63555;49.920;17.868;2023-07-30T15:02:51;2.17;;;1.10;;
69910;SDS011;63555;49.920;17.868;2023-07-30T15:07:53;2.20;;;0.90;;
69910;SDS011;63555;49.920;17.868;2023-07-30T15:12:53;2.10;;;0.87;;
69910;SDS011;63555;49.920;17.868;2023-07-30T15:17:54;1.90;;;0.70;;
69910;SDS011;63555;49.920;17.868;2023-07-30T15:22:54;1.90;;;0.90;;
69910;SDS011;63555;49.920;17.868;2023-07-30T15:27:56;3.17;;;0.80;;
69910;SDS011;63555;49.920;17.868;2023-07-30T15:32:58;4.23;;;0.70;;
69910;SDS011;63555;49.920;17.868;2023-07-30T15:37:58;2.07;;;0.60;;
69910;SDS011;63555;49.920;17.868;2023-07-30T15:42:58;1.70;;;0.60;;
69910;SDS011;63555;49.920;17.868;2023-07-30T15:47:59;2.00;;;0.60;;
69910;SDS011;63555;49.920;17.868;2023-07-30T15:52:59;3.67;;;0.70;;
69910;SDS011;63555;49.920;17.868;2023-07-30T15:58:00;3.83;;;0.50;;
69910;SDS011;63555;49.920;17.868;2023-07-30T16:03:00;2.30;;;0.53;;
69910;SDS011;63555;49.920;17.868;2023-07-30T16:08:04;7.80;;;0.50;;
69910;SDS011;63555;49.920;17.868;2023-07-30T16:13:04;4.20;;;0.57;;
69910;SDS011;63555;49.920;17.868;2023-07-30T16:18:05;1.60;;;0.50;;
69910;SDS011;63555;49.920;17.868;2023-07-30T16:23:06;3.22;;;0.47;;
69910;SDS011;63555;49.920;17.868;2023-07-30T16:28:08;1.63;;;0.43;;
69910;SDS011;63555;49.920;17.868;2023-07-30T16:33:09;1.60;;;0.50;;
69910;SDS011;63555;49.920;17.868;2023-07-30T16:38:09;6.20;;;0.60;;
69910;SDS011;63555;49.920;17.868;2023-07-30T16:43:10;3.07;;;0.40;;
69910;SDS011;63555;49.920;17.868;2023-07-30T16:48:11;3.97;;;0.47;;
69910;SDS011;63555;49.920;17.868;2023-07-30T16:53:12;1.70;;;0.50;;
69910;SDS011;63555;49.920;17.868;2023-07-30T16:58:13;2.50;;;0.87;;
69910;SDS011;63555;49.920;17.868;2023-07-30T17:03:13;2.60;;;0.50;;
69910;SDS011;63555;49.920;17.868;2023-07-30T17:08:14;1.77;;;0.50;;
69910;SDS011;63555;49.920;17.868;2023-07-30T17:13:14;1.40;;;0.30;;
69910;SDS011;63555;49.920;17.868;2023-07-30T17:18:15;1.80;;;0.50;;
69910;SDS011;63555;49.920;17.868;2023-07-30T17:23:16;2.90;;;0.52;;
69910;SDS011;63555;49.920;17.868;2023-07-30T17:28:16;1.73;;;0.40;;
69910;SDS011;63555;49.920;17.868;2023-07-30T17:33:17;3.27;;;0.50;;
69910;SDS011;63555;49.920;17.868;2023-07-30T17:38:19;1.75;;;0.40;;
69910;SDS011;63555;49.920;17.868;2023-07-30T17:43:19;4.27;;;0.83;;
69910;SDS011;63555;49.920;17.868;2023-07-30T17:48:21;1.70;;;0.40;;
69910;SDS011;63555;49.920;17.868;2023-07-30T17:53:22;3.60;;;1.00;;
69910;SDS011;63555;49.920;17.868;2023-07-30T17:58:22;2.80;;;0.63;;
69910;SDS011;63555;49.920;17.868;2023-07-30T18:03:23;2.95;;;0.57;;
69910;SDS011;63555;49.920;17.868;2023-07-30T18:08:24;2.30;;;0.60;;
69910;SDS011;63555;49.920;17.868;2023-07-30T18:13:24;1.43;;;0.40;;
69910;SDS011;63555;49.920;17.868;2023-07-30T18:18:25;2.17;;;0.60;;
69910;SDS011;63555;49.920;17.868;2023-07-30T18:23:25;2.47;;;0.60;;
69910;SDS011;63555;49.920;17.868;2023-07-30T18:28:26;2.83;;;0.57;;
69910;SDS011;63555;49.920;17.868;2023-07-30T18:33:26;1.80;;;0.50;;
69910;SDS011;63555;49.920;17.868;2023-07-30T18:38:26;4.20;;;0.50;;
69910;SDS011;63555;49.920;17.868;2023-07-30T18:43:27;3.17;;;0.50;;
69910;SDS011;63555;49.920;17.868;2023-07-30T18:48:27;4.30;;;0.57;;
69910;SDS011;63555;49.920;17.868;2023-07-30T18:53:29;2.80;;;0.50;;
69910;SDS011;63555;49.920;17.868;2023-07-30T18:58:30;2.43;;;0.80;;
69910;SDS011;63555;49.920;17.868;2023-07-30T19:03:31;3.67;;;0.55;;
69910;SDS011;63555;49.920;17.868;2023-07-30T19:08:32;7.47;;;0.70;;
69910;SDS011;63555;49.920;17.868;2023-07-30T19:13:32;2.30;;;0.53;;
69910;SDS011;63555;49.920;17.868;2023-07-30T19:18:33;2.35;;;0.60;;
69910;SDS011;63555;49.920;17.868;2023-07-30T19:23:33;3.33;;;0.70;;
69910;SDS011;63555;49.920;17.868;2023-07-30T19:28:34;4.43;;;0.60;;
69910;SDS011;63555;49.920;17.868;2023-07-30T19:33:35;1.70;;;0.50;;
69910;SDS011;63555;49.920;17.868;2023-07-30T19:38:38;2.03;;;0.60;;
69910;SDS011;63555;49.920;17.868;2023-07-30T19:43:39;2.53;;;0.70;;
69910;SDS011;63555;49.920;17.868;2023-07-30T19:48:40;2.70;;;0.50;;
69910;SDS011;63555;49.920;17.868;2023-07-30T19:53:40;1.77;;;0.52;;
69910;SDS011;63555;49.920;17.868;2023-07-30T19:58:41;2.03;;;0.60;;
69910;SDS011;63555;49.920;17.868;2023-07-30T20:03:41;1.58;;;0.50;;
69910;SDS011;63555;49.920;17.868;2023-07-30T20:08:42;2.00;;;0.70;;
69910;SDS011;63555;49.920;17.868;2023-07-30T20:13:42;2.03;;;0.60;;
69910;SDS011;63555;49.920;17.868;2023-07-30T20:18:43;2.20;;;0.70;;
69910;SDS011;63555;49.920;17.868;2023-07-30T20:23:43;2.20;;;0.60;;
69910;SDS011;63555;49.920;17.868;2023-07-30T20:28:47;2.58;;;0.70;;
69910;SDS011;63555;49.920;17.868;2023-07-30T20:33:49;1.80;;;0.60;;
69910;SDS011;63555;49.920;17.868;2023-07-30T20:38:50;2.20;;;0.60;;
69910;SDS011;63555;49.920;17.868;2023-07-30T20:43:50;2.00;;;0.70;;
69910;SDS011;63555;49.920;17.868;2023-07-30T20:48:50;2.27;;;0.60;;
69910;SDS011;63555;49.920;17.868;2023-07-30T20:53:51;20.95;;;0.98;;
69910;SDS011;63555;49.920;17.868;2023-07-30T20:58:54;2.63;;;0.90;;
69910;SDS011;63555;49.920;17.868;2023-07-30T21:03:54;2.37;;;0.80;;
69910;SDS011;63555;49.920;17.868;2023-07-30T21:08:55;8.50;;;1.40;;
69910;SDS011;63555;49.920;17.868;2023-07-30T21:13:55;9.57;;;1.20;;
69910;SDS011;63555;49.920;17.868;2023-07-30T21:18:56;3.97;;;1.23;;
69910;SDS011;63555;49.920;17.868;2023-07-30T21:23:56;7.30;;;1.40;;
69910;SDS011;63555;49.920;17.868;2023-07-30T21:28:56;3.27;;;1.47;;
69910;SDS011;63555;49.920;17.868;2023-07-30T21:33:57;4.90;;;1.70;;
69910;SDS011;63555;49.920;17.868;2023-07-30T21:38:57;3.77;;;1.67;;
69910;SDS011;63555;49.920;17.868;2023-07-30T21:43:57;3.13;;;1.50;;
69910;SDS011;63555;49.920;17.868;2023-07-30T21:48:58;8.13;;;2.10;;
69910;SDS011;63555;49.920;17.868;2023-07-30T21:53:58;2.67;;;1.30;;
69910;SDS011;63555;49.920;17.868;2023-07-30T21:58:59;2.57;;;1.00;;
69910;SDS011;63555;49.920;17.868;2023-07-30T22:03:59;5.13;;;1.10;;
69910;SDS011;63555;49.920;17.868;2023-07-30T22:09:00;3.20;;;1.00;;
69910;SDS011;63555;49.920;17.868;2023-07-30T22:14:00;3.63;;;0.83;;
69910;SDS011;63555;49.920;17.868;2023-07-30T22:19:01;8.13;;;1.20;;
69910;SDS011;63555;49.920;17.868;2023-07-30T22:24:01;3.37;;;1.20;;
69910;SDS011;63555;49.920;17.868;2023-07-30T22:29:02;2.30;;;1.00;;
69910;SDS011;63555;49.920;17.868;2023-07-30T22:34:02;4.28;;;1.35;;
69910;SDS011;63555;49.920;17.868;2023-07-30T22:39:03;5.50;;;1.35;;
69910;SDS011;63555;49.920;17.868;2023-07-30T22:44:03;4.18;;;1.42;;
69910;SDS011;63555;49.920;17.868;2023-07-30T22:49:03;2.80;;;1.30;;
69910;SDS011;63555;49.920;17.868;2023-07-30T22:54:04;3.00;;;1.60;;
69910;SDS011;63555;49.920;17.868;2023-07-30T22:59:04;3.43;;;1.70;;
69910;SDS011;63555;49.920;17.868;2023-07-30T23:04:04;4.33;;;1.77;;
69910;SDS011;63555;49.920;17.868;2023-07-30T23:09:05;4.60;;;1.90;;
69910;SDS011;63555;49.920;17.868;2023-07-30T23:14:05;4.23;;;2.00;;
69910;SDS011;63555;49.920;17.868;2023-07-30T23:19:06;7.73;;;2.37;;
69910;SDS011;63555;49.920;17.868;2023-07-30T23:24:06;5.50;;;2.13;;
69910;SDS011;63555;49.920;17.868;2023-07-30T23:29:07;7.63;;;2.13;;
69910;SDS011;63555;49.920;17.868;2023-07-30T23:34:07;5.30;;;2.20;;
69910;SDS011;63555;49.920;17.868;2023-07-30T23:39:07;4.87;;;2.40;;
69910;SDS011;63555;49.920;17.868;2023-07-30T23:44:08;5.87;;;2.10;;
69910;SDS011;63555;49.920;17.868;2023-07-30T23:49:08;3.80;;;2.20;;
69910;SDS011;63555;49.920;17.868;2023-07-30T23:54:08;4.23;;;2.47;;
69910;SDS011;63555;49.920;17.868;2023-07-30T23:59:09;6.03;;;2.60;;
